This is the latest recevied weather packets stored in our database for station/object N7CW. If no packets are shown the sender has not sent any weather packets the latest 1 day(s).
| Time | Temp. | Humidity | Pressure | Rain* | Wind** | Luminosity | Snow |
|---|---|---|---|---|---|---|---|
| 1778054298 | 6.11° C | 55% | 1015.7 hPa | 0 mm | - | 0 W/m² | - |
| 1778053086 | 6.11° C | 56% | 1016 hPa | 0 mm | - | 0 W/m² | - |
| 1778052784 | 5.56° C | 57% | 1016.2 hPa | 0 mm | - | 0 W/m² | - |
| 1778052179 | 5.56° C | 56% | 1016 hPa | 0 mm | - | 0 W/m² | - |
| 1778051876 | 5.56° C | 55% | 1015.8 hPa | 0 mm | - | 0 W/m² | - |
| 1778051574 | 5.56° C | 57% | 1015.9 hPa | 0 mm | - | 0 W/m² | - |
| 1778050665 | 6.67° C | 53% | 1015.8 hPa | 0 mm | - | 0 W/m² | - |
| 1778050362 | 6.67° C | 53% | 1015.7 hPa | 0 mm | - | 0 W/m² | - |
| 1778050058 | 7.22° C | 51% | 1016.1 hPa | 0 mm | - | 0 W/m² | - |
| 1778049754 | 7.22° C | 51% | 1015.7 hPa | 0 mm | - | 0 W/m² | - |
| 1778049452 | 7.22° C | 51% | 1015.8 hPa | 0 mm | - | 0 W/m² | - |
| 1778048544 | 7.22° C | 50% | 1015.8 hPa | 0 mm | - | 0 W/m² | - |
| 1778048240 | 7.22° C | 51% | 1015.7 hPa | 0 mm | - | 0 W/m² | - |
| 1778046119 | 5.56° C | 54% | 1015.7 hPa | 0 mm | - | 0 W/m² | - |
| 1778045214 | 7.78° C | 49% | 1015.5 hPa | 0 mm | - | 0 W/m² | - |
| 1778044003 | 8.33° C | 47% | 1015.3 hPa | 0 mm | - | 0 W/m² | - |
| 1778043396 | 8.33° C | 48% | 1015.4 hPa | 0 mm | - | 0 W/m² | - |
| 1778042791 | 7.78° C | 49% | 1015.3 hPa | 0 mm | - | 0 W/m² | - |
| 1778042487 | 8.33° C | 49% | 1015.1 hPa | 0 mm | - | 0 W/m² | - |
| 1778042185 | 8.33° C | 49% | 1015.2 hPa | 0 mm | - | 0 W/m² | - |
| 1778041883 | 7.78° C | 49% | 1014.8 hPa | 0 mm | - | 0 W/m² | - |
| 1778041279 | 8.33° C | 49% | 1015.2 hPa | 0 mm | - | 0 W/m² | - |
| 1778040978 | 8.33° C | 48% | 1015.1 hPa | 0 mm | - | 0 W/m² | - |
| 1778040372 | 8.33° C | 48% | 1015.2 hPa | 0 mm | - | 0 W/m² | - |
| 1778040068 | 8.33° C | 48% | 1015.3 hPa | 0 mm | - | 0 W/m² | - |
* Rain latest hour (hover to see other rain measurements)
** Current wind speed in m/s (hover to see current wind gust speed)